Terminal Aerodrome Forecast
Issued by NWS

Home | Current Version | Previous Version | Text Only | Print | Product List | Glossary On
Versions: 1 2 3 4 5 6 7 8 9 10 11 12 13 14 15 16 17 18
985
FTPA31 PHFO 082329
TAFHNY
TAF
PHNY 082329Z 0900/0924 VRB06KT P6SM -SHRA SCT007 BKN015
      TEMPO 0900/0903 1SM SHRA BR BKN005 BKN035
     FM091100 VRB04KT P6SM VCSH SCT015 BKN035=

USA.gov is the U.S. government's official web portal to all federal, state and local government web resources and services.